Observation data for Roaring Springs on 06/02/2020      Previous  Date  Next       Current Mesonet Observations  Soil Data  Daily Summary Page  Observations in Plain Language
KRRS 020500Z 19008KT 20/17 A3013 RMK A01 T02000170  RH  087%=      5-min Rain = 0
KRRS 020505Z 19008KT 20/17 A3013 RMK A01 T01980170  RH  088%=      5-min Rain = 0
KRRS 020510Z 19008KT 20/17 A3012 RMK A01 T01960170  RH  089%=      5-min Rain = 0
KRRS 020515Z 19009KT 20/17 A3013 RMK A01 T01950170  RH  090%=      5-min Rain = 0
KRRS 020520Z 19009KT 20/17 A3013 RMK A01 T01950171  RH  090%=      5-min Rain = 0
KRRS 020525Z 19009KT 19/17 A3013 RMK A01 T01940171  RH  091%=      5-min Rain = 0
KRRS 020530Z 19009KT 20/17 A3012 RMK A01 T01950172  RH  091%=      5-min Rain = 0
KRRS 020535Z 19009KT 19/17 A3012 RMK A01 T01940172  RH  091%=      5-min Rain = 0
KRRS 020540Z 19008KT 19/17 A3012 RMK A01 T01930172  RH  092%=      5-min Rain = 0
KRRS 020545Z 19009KT 19/17 A3012 RMK A01 T01920172  RH  093%=      5-min Rain = 0
KRRS 020550Z 19009KT 19/17 A3012 RMK A01 T01910172  RH  093%=      5-min Rain = 0
KRRS 020555Z 19008KT 19/17 A3012 RMK A01 T01910172  RH  093%=      5-min Rain = 0
KRRS 020600Z 19008KT 19/17 A3012 RMK A01 T01900172  RH  094%=      5-min Rain = 0
KRRS 020605Z 19008KT 19/17 A3012 RMK A01 T01900172  RH  094%=      5-min Rain = 0
KRRS 020610Z 19009KT 19/17 A3012 RMK A01 T01900172  RH  094%=      5-min Rain = 0
KRRS 020615Z 20008KT 19/17 A3012 RMK A01 T01890172  RH  095%=      5-min Rain = 0
KRRS 020620Z 20009KT 19/17 A3011 RMK A01 T01880173  RH  095%=      5-min Rain = 0
KRRS 020625Z 20008KT 19/17 A3011 RMK A01 T01880173  RH  096%=      5-min Rain = 0
KRRS 020630Z 20008KT 19/17 A3011 RMK A01 T01860172  RH  096%=      5-min Rain = 0
KRRS 020635Z 20009KT 19/17 A3011 RMK A01 T01860173  RH  097%=      5-min Rain = 0
KRRS 020640Z 19009KT 19/17 A3011 RMK A01 T01860173  RH  097%=      5-min Rain = 0
KRRS 020645Z 19010KT 19/17 A3011 RMK A01 T01860173  RH  097%=      5-min Rain = 0
KRRS 020650Z 18010KT 19/17 A301 RMK A01 T01860174  RH  098%=      5-min Rain = 0
KRRS 020655Z 18010KT 19/17 A301 RMK A01 T01860174  RH  098%=      5-min Rain = 0
KRRS 020700Z 18010KT 19/17 A301 RMK A01 T01860174  RH  098%=      5-min Rain = 0
KRRS 020705Z 18009KT 19/17 A301 RMK A01 T01850174  RH  098%=      5-min Rain = 0
KRRS 020710Z 18009KT 18/17 A301 RMK A01 T01840174  RH  098%=      5-min Rain = 0
KRRS 020715Z 18009KT 18/17 A301 RMK A01 T01830173  RH  099%=      5-min Rain = 0
KRRS 020720Z 18009KT 18/17 A3009 RMK A01 T01820173  RH  099%=      5-min Rain = 0
KRRS 020725Z 18009KT 18/17 A3009 RMK A01 T01820173  RH  100%=      5-min Rain = 0
KRRS 020730Z 18009KT 18/17 A3009 RMK A01 T01820174  RH  100%=      5-min Rain = 0
KRRS 020735Z 18009KT 18/17 A3009 RMK A01 T01820174  RH  100%=      5-min Rain = 0
KRRS 020740Z 19009KT 18/17 A3009 RMK A01 T01820174  RH  100%=      5-min Rain = 0
KRRS 020745Z 19009KT 18/17 A3009 RMK A01 T01810173  RH  100%=      5-min Rain = 0
KRRS 020750Z 19010KT 18/17 A3009 RMK A01 T01800173  RH  100%=      5-min Rain = 0
KRRS 020755Z 19009KT 18/17 A3009 RMK A01 T01800172  RH  100%=      5-min Rain = 0
KRRS 020800Z 19009KT 18/17 A3009 RMK A01 T01790172  RH  100%=      5-min Rain = 0
KRRS 020805Z 19010KT 18/17 A3009 RMK A01 T01800172  RH  100%=      5-min Rain = 0
KRRS 020810Z 19010KT 18/17 A3009 RMK A01 T01800172  RH  100%=      5-min Rain = 0
KRRS 020815Z 19010KT 18/17 A3009 RMK A01 T01800172  RH  100%=      5-min Rain = 0
KRRS 020820Z 19010KT 18/17 A3009 RMK A01 T01800172  RH  100%=      5-min Rain = 0
KRRS 020825Z 19010KT 18/17 A3009 RMK A01 T01800172  RH  100%=      5-min Rain = 0
KRRS 020830Z 19010KT 18/17 A3008 RMK A01 T01800172  RH  100%=      5-min Rain = 0
KRRS 020835Z 19010KT 18/17 A3008 RMK A01 T01800172  RH  100%=      5-min Rain = 0
KRRS 020840Z 20009KT 18/17 A3008 RMK A01 T01810173  RH  100%=      5-min Rain = 0
KRRS 020845Z 20010KT 18/17 A3008 RMK A01 T01810173  RH  100%=      5-min Rain = 0
KRRS 020850Z 20010KT 18/17 A3008 RMK A01 T01820174  RH  100%=      5-min Rain = 0
KRRS 020855Z 20010KT 18/17 A3008 RMK A01 T01820174  RH  100%=      5-min Rain = 0
KRRS 020900Z 20010KT 18/17 A3008 RMK A01 T01820174  RH  100%=      5-min Rain = 0
KRRS 020905Z 20010KT 18/17 A3008 RMK A01 T01820174  RH  100%=      5-min Rain = 0
KRRS 020910Z 20010KT 18/17 A3007 RMK A01 T01820174  RH  100%=      5-min Rain = 0
KRRS 020915Z 20009KT 18/17 A3007 RMK A01 T01820174  RH  100%=      5-min Rain = 0
KRRS 020920Z 20009KT 18/17 A3007 RMK A01 T01820174  RH  100%=      5-min Rain = 0
KRRS 020925Z 20009KT 18/17 A3007 RMK A01 T01820174  RH  100%=      5-min Rain = 0
KRRS 020930Z 20009KT 18/17 A3007 RMK A01 T01820174  RH  100%=      5-min Rain = 0
KRRS 020935Z 20009KT 18/17 A3007 RMK A01 T01830174  RH  100%=      5-min Rain = 0
KRRS 020940Z 20009KT 18/17 A3007 RMK A01 T01830174  RH  099%=      5-min Rain = 0
KRRS 020945Z 20009KT 18/17 A3007 RMK A01 T01840174  RH  099%=      5-min Rain = 0
KRRS 020950Z 19009KT 18/17 A3007 RMK A01 T01840174  RH  099%=      5-min Rain = 0
KRRS 020955Z 19009KT 19/17 A3007 RMK A01 T01850174  RH  098%=      5-min Rain = 0
KRRS 021000Z 20009KT 19/17 A3007 RMK A01 T01850174  RH  098%=      5-min Rain = 0
KRRS 021005Z 20008KT 19/17 A3007 RMK A01 T01850174  RH  098%=      5-min Rain = 0
KRRS 021010Z 20008KT 19/17 A3008 RMK A01 T01850174  RH  098%=      5-min Rain = 0
KRRS 021015Z 21008KT 18/17 A3008 RMK A01 T01840174  RH  099%=      5-min Rain = 0
KRRS 021020Z 20008KT 18/17 A3008 RMK A01 T01840174  RH  099%=      5-min Rain = 0
KRRS 021025Z 19008KT 18/17 A3008 RMK A01 T01840174  RH  099%=      5-min Rain = 0
KRRS 021030Z 19009KT 18/17 A3008 RMK A01 T01840174  RH  099%=      5-min Rain = 0
KRRS 021035Z 19010KT 18/17 A3008 RMK A01 T01840174  RH  099%=      5-min Rain = 0
KRRS 021040Z 20010KT 19/17 A3008 RMK A01 T01850174  RH  099%=      5-min Rain = 0
KRRS 021045Z 20010KT 19/17 A3008 RMK A01 T01850174  RH  098%=      5-min Rain = 0
KRRS 021050Z 20011KT 19/17 A3008 RMK A01 T01850174  RH  098%=      5-min Rain = 0
KRRS 021055Z 21010KT 19/18 A3008 RMK A01 T01860175  RH  098%=      5-min Rain = 0
KRRS 021100Z 21009KT 19/17 A3008 RMK A01 T01850174  RH  098%=      5-min Rain = 0
KRRS 021105Z 21008KT 19/17 A3008 RMK A01 T01850174  RH  099%=      5-min Rain = 0
KRRS 021110Z 21008KT 18/17 A3008 RMK A01 T01840174  RH  099%=      5-min Rain = 0
KRRS 021115Z 21009KT 19/18 A3009 RMK A01 T01850175  RH  099%=      5-min Rain = 0
KRRS 021120Z 22009KT 19/18 A3009 RMK A01 T01860175  RH  098%=      5-min Rain = 0
KRRS 021125Z 21008KT 19/18 A3009 RMK A01 T01860175  RH  098%=      5-min Rain = 0
KRRS 021130Z 21008KT 19/18 A3009 RMK A01 T01860175  RH  098%=      5-min Rain = 0
KRRS 021135Z 21007KT 19/17 A3009 RMK A01 T01850174  RH  099%=      5-min Rain = 0
KRRS 021140Z 21007KT 18/17 A3009 RMK A01 T01840174  RH  099%=      5-min Rain = 0
KRRS 021145Z 20009KT 19/18 A3009 RMK A01 T01850175  RH  099%=      5-min Rain = 0
KRRS 021150Z 20008KT 19/18 A3009 RMK A01 T01850175  RH  099%=      5-min Rain = 0
KRRS 021155Z 19008KT 19/18 A3009 RMK A01 T01850175  RH  099%=      5-min Rain = 0
KRRS 021200Z 19009KT 19/18 A301 RMK A01 T01850175  RH  099%=      5-min Rain = 0
KRRS 021205Z 19009KT 19/18 A301 RMK A01 T01860175  RH  098%=      5-min Rain = 0
KRRS 021210Z 19009KT 19/18 A301 RMK A01 T01860175  RH  098%=      5-min Rain = 0
KRRS 021215Z 19009KT 19/18 A301 RMK A01 T01870176  RH  098%=      5-min Rain = 0
KRRS 021220Z 19008KT 19/18 A301 RMK A01 T01870176  RH  098%=      5-min Rain = 0
KRRS 021225Z 19008KT 19/18 A301 RMK A01 T01880177  RH  098%=      5-min Rain = 0
KRRS 021230Z 20008KT 19/18 A301 RMK A01 T01900177  RH  098%=      5-min Rain = 0
KRRS 021235Z 21008G13KT 19/18 A301 RMK A01 T01920178  RH  097%=      5-min Rain = 0
KRRS 021240Z 21010KT 20/18 A301 RMK A01 T01950179  RH  095%=      5-min Rain = 0
KRRS 021245Z 21010KT 20/18 A301 RMK A01 T01980179  RH  093%=      5-min Rain = 0
KRRS 021250Z 21011G16KT 20/18 A301 RMK A01 T02000179  RH  092%=      5-min Rain = 0
KRRS 021255Z 21011KT 20/18 A301 RMK A01 T02010179  RH  092%=      5-min Rain = 0
KRRS 021300Z 21014G20KT 20/18 A301 RMK A01 T02020178  RH  091%=      5-min Rain = 0
KRRS 021305Z 21015KT 20/18 A301 RMK A01 T02030178  RH  090%=      5-min Rain = 0
KRRS 021310Z 21013G18KT 21/18 A301 RMK A01 T02050179  RH  090%=      5-min Rain = 0
KRRS 021315Z 21013KT 21/18 A301 RMK A01 T02090180  RH  088%=      5-min Rain = 0
KRRS 021320Z 21013KT 21/18 A301 RMK A01 T02110180  RH  087%=      5-min Rain = 0
KRRS 021325Z 21013KT 21/18 A301 RMK A01 T02120180  RH  087%=      5-min Rain = 0
KRRS 021330Z 21013KT 21/18 A301 RMK A01 T02140180  RH  086%=      5-min Rain = 0
KRRS 021335Z 21012KT 22/18 A301 RMK A01 T02150181  RH  085%=      5-min Rain = 0
KRRS 021340Z 21012KT 22/18 A3011 RMK A01 T02190183  RH  084%=      5-min Rain = 0
KRRS 021345Z 22014KT 22/18 A301 RMK A01 T02220182  RH  082%=      5-min Rain = 0
KRRS 021350Z 22014G19KT 22/18 A301 RMK A01 T02210182  RH  082%=      5-min Rain = 0
KRRS 021355Z 22011G16KT 23/18 A3011 RMK A01 T02260184  RH  081%=      5-min Rain = 0
KRRS 021400Z 22012KT 23/18 A3011 RMK A01 T02310184  RH  079%=      5-min Rain = 0
KRRS 021405Z 21012G17KT 23/18 A3011 RMK A01 T02280184  RH  080%=      5-min Rain = 0
KRRS 021410Z 21014KT 23/18 A3011 RMK A01 T02260181  RH  080%=      5-min Rain = 0
KRRS 021415Z 21015KT 22/18 A3011 RMK A01 T02230181  RH  081%=      5-min Rain = 0
KRRS 021420Z 21015KT 22/18 A3011 RMK A01 T02220180  RH  081%=      5-min Rain = 0
KRRS 021425Z 21012G18KT 22/18 A3011 RMK A01 T02240181  RH  081%=      5-min Rain = 0
KRRS 021430Z 21013KT 23/18 A3011 RMK A01 T02290183  RH  079%=      5-min Rain = 0
KRRS 021435Z 20014KT 23/18 A3011 RMK A01 T02340183  RH  077%=      5-min Rain = 0
KRRS 021440Z 22014KT 23/18 A3011 RMK A01 T02320182  RH  078%=      5-min Rain = 0
KRRS 021445Z 22014G19KT 23/18 A3011 RMK A01 T02320182  RH  077%=      5-min Rain = 0
KRRS 021450Z 23014KT 23/18 A3011 RMK A01 T02310181  RH  077%=      5-min Rain = 0
KRRS 021455Z 22013KT 23/18 A3011 RMK A01 T02320182  RH  077%=      5-min Rain = 0
KRRS 021500Z 22012G17KT 24/18 A3011 RMK A01 T02350183  RH  076%=      5-min Rain = 0
KRRS 021505Z 22013KT 24/18 A3011 RMK A01 T02360182  RH  076%=      5-min Rain = 0
KRRS 021510Z 23012KT 24/18 A3011 RMK A01 T02370183  RH  075%=      5-min Rain = 0
KRRS 021515Z 21013KT 24/18 A301 RMK A01 T02370182  RH  075%=      5-min Rain = 0
KRRS 021520Z 21012G17KT 24/18 A301 RMK A01 T02380183  RH  075%=      5-min Rain = 0
KRRS 021525Z 19013KT 24/18 A301 RMK A01 T02440183  RH  073%=      5-min Rain = 0
KRRS 021530Z 20010G16KT 24/18 A301 RMK A01 T02440184  RH  073%=      5-min Rain = 0
KRRS 021535Z 20012KT 24/18 A301 RMK A01 T02440183  RH  072%=      5-min Rain = 0
KRRS 021540Z 20011G16KT 25/18 A301 RMK A01 T02450184  RH  073%=      5-min Rain = 0
KRRS 021545Z 19012KT 25/18 A301 RMK A01 T02480183  RH  071%=      5-min Rain = 0
KRRS 021550Z 19012G17KT 25/18 A301 RMK A01 T02500184  RH  071%=      5-min Rain = 0
KRRS 021555Z 20012KT 25/18 A301 RMK A01 T02530182  RH  068%=      5-min Rain = 0
KRRS 021600Z 20011KT 25/18 A3009 RMK A01 T02530183  RH  069%=      5-min Rain = 0
KRRS 021605Z 21010G16KT 25/18 A3009 RMK A01 T02520183  RH  069%=      5-min Rain = 0
KRRS 021610Z 21012G17KT 25/18 A3009 RMK A01 T02540184  RH  068%=      5-min Rain = 0
KRRS 021615Z 21011G17KT 26/18 A3009 RMK A01 T02560182  RH  067%=      5-min Rain = 0
KRRS 021620Z 20011G16KT 26/18 A3009 RMK A01 T02570183  RH  067%=      5-min Rain = 0
KRRS 021625Z 19010KT 26/18 A3009 RMK A01 T02590184  RH  067%=      5-min Rain = 0
KRRS 021630Z 19009G14KT 26/18 A3009 RMK A01 T02630184  RH  066%=      5-min Rain = 0
KRRS 021635Z 19010KT 27/18 A3009 RMK A01 T02650183  RH  064%=      5-min Rain = 0
KRRS 021640Z 20009G14KT 27/18 A3009 RMK A01 T02670183  RH  063%=      5-min Rain = 0
KRRS 021645Z 19010KT 27/18 A3009 RMK A01 T02660180  RH  062%=      5-min Rain = 0
KRRS 021650Z 18010KT 27/18 A3009 RMK A01 T02690180  RH  062%=      5-min Rain = 0
KRRS 021655Z 18009KT 27/18 A3009 RMK A01 T02710181  RH  061%=      5-min Rain = 0
KRRS 021700Z 18008KT 27/18 A3009 RMK A01 T02710179  RH  060%=      5-min Rain = 0
KRRS 021705Z 20007G17KT 28/18 A3009 RMK A01 T02770179  RH  058%=      5-min Rain = 0
KRRS 021710Z 20008G13KT 28/18 A3009 RMK A01 T02790179  RH  057%=      5-min Rain = 0
KRRS 021715Z 18008G13KT 28/18 A3009 RMK A01 T02790177  RH  057%=      5-min Rain = 0
KRRS 021720Z 16008KT 28/18 A3009 RMK A01 T02790176  RH  056%=      5-min Rain = 0
KRRS 021725Z 20010G17KT 28/18 A3009 RMK A01 T02810175  RH  055%=      5-min Rain = 0
KRRS 021730Z 21011G17KT 28/18 A3009 RMK A01 T02800175  RH  056%=      5-min Rain = 0
KRRS 021735Z 20008KT 28/18 A3009 RMK A01 T02820176  RH  056%=      5-min Rain = 0
KRRS 021740Z 17010G16KT 28/18 A3009 RMK A01 T02820175  RH  055%=      5-min Rain = 0
KRRS 021745Z 16008G13KT 29/17 A3008 RMK A01 T02860174  RH  053%=      5-min Rain = 0
KRRS 021750Z 18010KT 29/17 A3008 RMK A01 T02880174  RH  053%=      5-min Rain = 0
KRRS 021755Z 19010G15KT 29/18 A3008 RMK A01 T02910176  RH  053%=      5-min Rain = 0
KRRS 021800Z 17010KT 29/17 A3008 RMK A01 T02920170  RH  050%=      5-min Rain = 0
KRRS 021805Z 16010G15KT 29/18 A3008 RMK A01 T02920177  RH  053%=      5-min Rain = 0
KRRS 021810Z 16011G16KT 29/18 A3008 RMK A01 T02890175  RH  053%=      5-min Rain = 0
KRRS 021815Z 18010G17KT 29/17 A3008 RMK A01 T02930173  RH  051%=      5-min Rain = 0
KRRS 021820Z 19011G16KT 29/18 A3008 RMK A01 T02890176  RH  053%=      5-min Rain = 0
KRRS 021825Z 19009KT 29/18 A3008 RMK A01 T02860175  RH  054%=      5-min Rain = 0
KRRS 021830Z 17010G15KT 29/17 A3008 RMK A01 T02920174  RH  052%=      5-min Rain = 0
KRRS 021835Z 18012G17KT 29/17 A3008 RMK A01 T02900169  RH  050%=      5-min Rain = 0
KRRS 021840Z 20010G15KT 29/17 A3008 RMK A01 T02890171  RH  051%=      5-min Rain = 0
KRRS 021845Z 19011G17KT 29/17 A3007 RMK A01 T02910170  RH  051%=      5-min Rain = 0
KRRS 021850Z 18010G18KT 29/17 A3007 RMK A01 T02940174  RH  051%=      5-min Rain = 0
KRRS 021855Z 19010G19KT 30/17 A3007 RMK A01 T02950171  RH  050%=      5-min Rain = 0
KRRS 021900Z 18009G16KT 30/17 A3007 RMK A01 T02950168  RH  049%=      5-min Rain = 0
KRRS 021905Z 18011G16KT 30/17 A3007 RMK A01 T02970165  RH  047%=      5-min Rain = 0
KRRS 021910Z 17009G15KT 29/17 A3007 RMK A01 T02930166  RH  049%=      5-min Rain = 0
KRRS 021915Z 18011KT 29/17 A3007 RMK A01 T02900167  RH  050%=      5-min Rain = 0
KRRS 021920Z 18009G14KT 30/16 A3007 RMK A01 T02960163  RH  047%=      5-min Rain = 0
KRRS 021925Z 17011G19KT 29/17 A3006 RMK A01 T02940169  RH  049%=      5-min Rain = 0
KRRS 021930Z 18009G14KT 30/17 A3006 RMK A01 T02990167  RH  047%=      5-min Rain = 0
KRRS 021935Z 18009G14KT 30/16 A3006 RMK A01 T02980164  RH  047%=      5-min Rain = 0
KRRS 021940Z 15009G17KT 29/16 A3006 RMK A01 T02940161  RH  047%=      5-min Rain = 0
KRRS 021945Z 17012G17KT 29/16 A3006 RMK A01 T02930161  RH  047%=      5-min Rain = 0
KRRS 021950Z 17010KT 30/16 A3006 RMK A01 T03010158  RH  044%=      5-min Rain = 0
KRRS 021955Z 16011KT 30/16 A3005 RMK A01 T03020162  RH  045%=      5-min Rain = 0
KRRS 022000Z 17010G17KT 30/16 A3005 RMK A01 T03010159  RH  044%=      5-min Rain = 0
KRRS 022005Z 16011G18KT 30/16 A3005 RMK A01 T03010164  RH  046%=      5-min Rain = 0
KRRS 022010Z 16011G17KT 31/17 A3005 RMK A01 T03060167  RH  045%=      5-min Rain = 0
KRRS 022015Z 17010G15KT 31/16 A3005 RMK A01 T03100164  RH  043%=      5-min Rain = 0
KRRS 022020Z 16010G16KT 31/16 A3004 RMK A01 T03050164  RH  045%=      5-min Rain = 0
KRRS 022025Z 17012G20KT 30/16 A3004 RMK A01 T03040163  RH  045%=      5-min Rain = 0
KRRS 022030Z 15012KT 30/16 A3004 RMK A01 T03040164  RH  045%=      5-min Rain = 0
KRRS 022035Z 19011KT 30/16 A3004 RMK A01 T03020163  RH  045%=      5-min Rain = 0
KRRS 022040Z 18008KT 30/16 A3004 RMK A01 T03020161  RH  044%=      5-min Rain = 0
KRRS 022045Z 16010KT 30/16 A3004 RMK A01 T02960161  RH  046%=      5-min Rain = 0
KRRS 022050Z 16008KT 30/16 A3004 RMK A01 T02990164  RH  046%=      5-min Rain = 0
KRRS 022055Z 19009G14KT 31/16 A3003 RMK A01 T03070160  RH  043%=      5-min Rain = 0
KRRS 022100Z 17010G15KT 31/17 A3003 RMK A01 T03120166  RH  044%=      5-min Rain = 0
KRRS 022105Z 18009G15KT 31/16 A3003 RMK A01 T03100159  RH  042%=      5-min Rain = 0
KRRS 022110Z 18010G16KT 31/16 A3003 RMK A01 T03090159  RH  042%=      5-min Rain = 0
KRRS 022115Z 15011G16KT 31/16 A3003 RMK A01 T03140163  RH  042%=      5-min Rain = 0
KRRS 022120Z 15013G19KT 31/16 A3002 RMK A01 T03130163  RH  043%=      5-min Rain = 0
KRRS 022125Z 16011G16KT 31/16 A3002 RMK A01 T03120164  RH  043%=      5-min Rain = 0
KRRS 022130Z 15011G18KT 31/16 A3002 RMK A01 T03140163  RH  042%=      5-min Rain = 0
KRRS 022135Z 16010KT 31/16 A3002 RMK A01 T03100161  RH  043%=      5-min Rain = 0
KRRS 022140Z 15010KT 31/16 A3002 RMK A01 T03080162  RH  043%=      5-min Rain = 0
KRRS 022145Z 18009KT 31/16 A3001 RMK A01 T03120161  RH  042%=      5-min Rain = 0
KRRS 022150Z 16011G16KT 31/16 A3001 RMK A01 T03140164  RH  042%=      5-min Rain = 0
KRRS 022155Z 15013G19KT 31/16 A3001 RMK A01 T03100161  RH  043%=      5-min Rain = 0
KRRS 022200Z 16011G18KT 31/16 A3001 RMK A01 T03110161  RH  042%=      5-min Rain = 0
KRRS 022205Z 17009KT 32/16 A3001 RMK A01 T03150161  RH  041%=      5-min Rain = 0
KRRS 022210Z 15011G16KT 31/16 A3001 RMK A01 T03120161  RH  042%=      5-min Rain = 0
KRRS 022215Z 16010KT 31/16 A30 RMK A01 T03060160  RH  043%=      5-min Rain = 0
KRRS 022220Z 16010G17KT 31/16 A30 RMK A01 T03100159  RH  042%=      5-min Rain = 0
KRRS 022225Z 17012G17KT 31/16 A30 RMK A01 T03130162  RH  042%=      5-min Rain = 0
KRRS 022230Z 16010G15KT 32/16 A30 RMK A01 T03150161  RH  042%=      5-min Rain = 0
KRRS 022235Z 14010KT 32/16 A30 RMK A01 T03150162  RH  042%=      5-min Rain = 0
KRRS 022240Z 16013G18KT 31/16 A30 RMK A01 T03120160  RH  042%=      5-min Rain = 0
KRRS 022245Z 16010KT 30/16 A30 RMK A01 T03000160  RH  045%=      5-min Rain = 0
KRRS 022250Z 15010KT 30/16 A30 RMK A01 T03040161  RH  044%=      5-min Rain = 0
KRRS 022255Z 17011KT 31/16 A2999 RMK A01 T03110162  RH  043%=      5-min Rain = 0
KRRS 022300Z 16013KT 31/16 A2999 RMK A01 T03080160  RH  043%=      5-min Rain = 0
KRRS 022305Z 16011G17KT 30/16 A2999 RMK A01 T03000158  RH  044%=      5-min Rain = 0
KRRS 022310Z 16007G12KT 30/16 A2999 RMK A01 T03000159  RH  044%=      5-min Rain = 0
KRRS 022315Z 15011KT 31/15 A2999 RMK A01 T03070154  RH  041%=      5-min Rain = 0
KRRS 022320Z 16009KT 31/15 A2999 RMK A01 T03060154  RH  041%=      5-min Rain = 0
KRRS 022325Z 17010G15KT 30/16 A2999 RMK A01 T03030157  RH  043%=      5-min Rain = 0
KRRS 022330Z 16009G14KT 30/16 A2999 RMK A01 T02950155  RH  045%=      5-min Rain = 0
KRRS 022335Z 16010KT 30/16 A2999 RMK A01 T02970157  RH  045%=      5-min Rain = 0
KRRS 022340Z 15008KT 31/16 A2999 RMK A01 T03050158  RH  043%=      5-min Rain = 0
KRRS 022345Z 15010KT 31/16 A2999 RMK A01 T03060159  RH  043%=      5-min Rain = 0
KRRS 022350Z 15011G19KT 30/16 A2998 RMK A01 T03040161  RH  044%=      5-min Rain = 0
KRRS 022355Z 15011G16KT 30/16 A2998 RMK A01 T03020162  RH  045%=      5-min Rain = 0
KRRS 030000Z 14014KT 30/16 A2998 RMK A01 T03010163  RH  046%=      5-min Rain = 0
KRRS 030005Z 14014G19KT 30/17 A2998 RMK A01 T02990166  RH  047%=      5-min Rain = 0
KRRS 030010Z 14014G19KT 30/17 A2998 RMK A01 T02980167  RH  047%=      5-min Rain = 0
KRRS 030015Z 15013KT 30/17 A2998 RMK A01 T02960170  RH  049%=      5-min Rain = 0
KRRS 030020Z 14013KT 30/17 A2998 RMK A01 T02950170  RH  049%=      5-min Rain = 0
KRRS 030025Z 15012KT 29/17 A2998 RMK A01 T02930170  RH  050%=      5-min Rain = 0
KRRS 030030Z 15013KT 29/17 A2999 RMK A01 T02930171  RH  050%=      5-min Rain = 0
KRRS 030035Z 15013G18KT 29/17 A2999 RMK A01 T02920170  RH  050%=      5-min Rain = 0
KRRS 030040Z 16011G16KT 29/17 A2999 RMK A01 T02910170  RH  050%=      5-min Rain = 0
KRRS 030045Z 15011KT 29/17 A2999 RMK A01 T02900170  RH  051%=      5-min Rain = 0
KRRS 030050Z 15012G17KT 29/17 A2999 RMK A01 T02880171  RH  052%=      5-min Rain = 0
KRRS 030055Z 14011KT 29/17 A2999 RMK A01 T02870173  RH  052%=      5-min Rain = 0
KRRS 030100Z 15011KT 29/17 A2999 RMK A01 T02870170  RH  052%=      5-min Rain = 0
KRRS 030105Z 15013G18KT 29/17 A30 RMK A01 T02850170  RH  052%=      5-min Rain = 0
KRRS 030110Z 14014KT 28/17 A30 RMK A01 T02830170  RH  053%=      5-min Rain = 0
KRRS 030115Z 14013KT 28/17 A30 RMK A01 T02820172  RH  054%=      5-min Rain = 0
KRRS 030120Z 14012KT 28/17 A3001 RMK A01 T02790174  RH  056%=      5-min Rain = 0
KRRS 030125Z 14014KT 28/17 A3001 RMK A01 T02770174  RH  056%=      5-min Rain = 0
KRRS 030130Z 14011KT 28/17 A3001 RMK A01 T02750174  RH  057%=      5-min Rain = 0
KRRS 030135Z 14012KT 27/17 A3001 RMK A01 T02730174  RH  058%=      5-min Rain = 0
KRRS 030140Z 14011KT 27/17 A3001 RMK A01 T02710174  RH  058%=      5-min Rain = 0
KRRS 030145Z 14011KT 27/17 A3002 RMK A01 T02690173  RH  059%=      5-min Rain = 0
KRRS 030150Z 14010KT 27/17 A3002 RMK A01 T02670173  RH  059%=      5-min Rain = 0
KRRS 030155Z 14011KT 27/17 A3002 RMK A01 T02660173  RH  060%=      5-min Rain = 0
KRRS 030200Z 15010KT 26/17 A3002 RMK A01 T02640173  RH  060%=      5-min Rain = 0
KRRS 030205Z 14010KT 26/17 A3002 RMK A01 T02630173  RH  061%=      5-min Rain = 0
KRRS 030210Z 14011KT 26/17 A3002 RMK A01 T02620172  RH  061%=      5-min Rain = 0
KRRS 030215Z 15009KT 26/17 A3002 RMK A01 T02600172  RH  061%=      5-min Rain = 0
KRRS 030220Z 15009KT 26/17 A3003 RMK A01 T02590172  RH  062%=      5-min Rain = 0
KRRS 030225Z 15009KT 26/17 A3003 RMK A01 T02570172  RH  063%=      5-min Rain = 0
KRRS 030230Z 15008KT 26/17 A3003 RMK A01 T02550172  RH  063%=      5-min Rain = 0
KRRS 030235Z 15008KT 25/17 A3003 RMK A01 T02540172  RH  064%=      5-min Rain = 0
KRRS 030240Z 15008KT 25/17 A3003 RMK A01 T02520172  RH  064%=      5-min Rain = 0
KRRS 030245Z 15008KT 25/17 A3003 RMK A01 T02510173  RH  065%=      5-min Rain = 0
KRRS 030250Z 15008KT 25/17 A3003 RMK A01 T02490173  RH  066%=      5-min Rain = 0
KRRS 030255Z 15008KT 25/17 A3003 RMK A01 T02480173  RH  066%=      5-min Rain = 0
KRRS 030300Z 15008KT 25/17 A3004 RMK A01 T02470173  RH  066%=      5-min Rain = 0
KRRS 030305Z 15008KT 25/17 A3004 RMK A01 T02460173  RH  067%=      5-min Rain = 0
KRRS 030310Z 15009KT 25/17 A3004 RMK A01 T02450173  RH  067%=      5-min Rain = 0
KRRS 030315Z 15008KT 24/17 A3004 RMK A01 T02440173  RH  068%=      5-min Rain = 0
KRRS 030320Z 16008KT 24/17 A3004 RMK A01 T02420173  RH  069%=      5-min Rain = 0
KRRS 030325Z 16008KT 24/17 A3004 RMK A01 T02410173  RH  069%=      5-min Rain = 0
KRRS 030330Z 16008KT 24/17 A3004 RMK A01 T02390173  RH  070%=      5-min Rain = 0
KRRS 030335Z 16008KT 24/17 A3004 RMK A01 T02380173  RH  070%=      5-min Rain = 0
KRRS 030340Z 16008KT 24/17 A3005 RMK A01 T02370173  RH  071%=      5-min Rain = 0
KRRS 030345Z 16008KT 24/17 A3005 RMK A01 T02370174  RH  071%=      5-min Rain = 0
KRRS 030350Z 16008KT 24/17 A3005 RMK A01 T02360174  RH  072%=      5-min Rain = 0
KRRS 030355Z 16008KT 24/17 A3005 RMK A01 T02350174  RH  072%=      5-min Rain = 0
KRRS 030400Z 16008KT 23/18 A3005 RMK A01 T02340175  RH  073%=      5-min Rain = 0
KRRS 030405Z 16008KT 23/18 A3005 RMK A01 T02330175  RH  073%=      5-min Rain = 0
KRRS 030410Z 16007KT 23/18 A3005 RMK A01 T02320175  RH  074%=      5-min Rain = 0
KRRS 030415Z 17007KT 23/18 A3005 RMK A01 T02310175  RH  075%=      5-min Rain = 0
KRRS 030420Z 17008KT 23/18 A3006 RMK A01 T02300176  RH  075%=      5-min Rain = 0
KRRS 030425Z 17008KT 23/18 A3006 RMK A01 T02300176  RH  075%=      5-min Rain = 0
KRRS 030430Z 17007KT 23/18 A3006 RMK A01 T02280176  RH  076%=      5-min Rain = 0
KRRS 030435Z 17008KT 23/18 A3006 RMK A01 T02280176  RH  076%=      5-min Rain = 0
KRRS 030440Z 17008KT 23/18 A3006 RMK A01 T02270176  RH  077%=      5-min Rain = 0
KRRS 030445Z 17009KT 23/18 A3006 RMK A01 T02270176  RH  077%=      5-min Rain = 0
KRRS 030450Z 17009KT 23/18 A3006 RMK A01 T02260176  RH  077%=      5-min Rain = 0
KRRS 030455Z 17009KT 23/18 A3006 RMK A01 T02260176  RH  077%=      5-min Rain = 0

Page generated in 0.0095 seconds.